sensor_id;sensor_type;location;lat;lon;timestamp;pressure;altitude;pressure_sealevel;temperature;humidity
71716;BME280;59568;52.128;5.434;2023-07-13T00:01:55;101448.03;;;16.75;74.08
71716;BME280;59568;52.128;5.434;2023-07-13T00:04:24;101452.38;;;16.71;74.54
71716;BME280;59568;52.128;5.434;2023-07-13T00:06:57;101447.09;;;16.71;73.91
71716;BME280;59568;52.128;5.434;2023-07-13T00:09:24;101443.53;;;16.67;74.41
71716;BME280;59568;52.128;5.434;2023-07-13T00:11:54;101445.25;;;16.63;75.38
71716;BME280;59568;52.128;5.434;2023-07-13T00:14:23;101457.22;;;16.61;74.38
71716;BME280;59568;52.128;5.434;2023-07-13T00:16:51;101445.88;;;16.60;74.33
71716;BME280;59568;52.128;5.434;2023-07-13T00:19:18;101450.22;;;16.56;74.91
71716;BME280;59568;52.128;5.434;2023-07-13T00:21:46;101453.00;;;16.51;75.40
71716;BME280;59568;52.128;5.434;2023-07-13T00:24:16;101454.41;;;16.48;74.94
71716;BME280;59568;52.128;5.434;2023-07-13T00:26:45;101450.84;;;16.44;75.19
71716;BME280;59568;52.128;5.434;2023-07-13T00:29:13;101449.59;;;16.42;75.31
71716;BME280;59568;52.128;5.434;2023-07-13T00:31:40;101447.59;;;16.38;75.31
71716;BME280;59568;52.128;5.434;2023-07-13T00:34:08;101454.09;;;16.41;74.83
71716;BME280;59568;52.128;5.434;2023-07-13T00:36:35;101447.28;;;16.40;74.52
71716;BME280;59568;52.128;5.434;2023-07-13T00:39:02;101449.13;;;16.40;75.03
71716;BME280;59568;52.128;5.434;2023-07-13T00:41:31;101437.63;;;16.35;75.09
71716;BME280;59568;52.128;5.434;2023-07-13T00:43:58;101441.69;;;16.33;75.01
71716;BME280;59568;52.128;5.434;2023-07-13T00:46:28;101439.34;;;16.31;75.20
71716;BME280;59568;52.128;5.434;2023-07-13T00:49:04;101448.34;;;16.30;75.41
71716;BME280;59568;52.128;5.434;2023-07-13T00:54:07;101447.41;;;16.26;75.06
71716;BME280;59568;52.128;5.434;2023-07-13T00:56:37;101448.03;;;16.23;75.11
71716;BME280;59568;52.128;5.434;2023-07-13T00:59:06;101449.41;;;16.21;75.31
71716;BME280;59568;52.128;5.434;2023-07-13T01:01:33;101443.97;;;16.17;75.18
71716;BME280;59568;52.128;5.434;2023-07-13T01:04:01;101447.72;;;16.16;75.25
71716;BME280;59568;52.128;5.434;2023-07-13T01:06:28;101443.69;;;16.10;75.58
71716;BME280;59568;52.128;5.434;2023-07-13T01:08:56;101443.97;;;16.08;76.30
71716;BME280;59568;52.128;5.434;2023-07-13T01:11:24;101440.25;;;16.09;75.64
71716;BME280;59568;52.128;5.434;2023-07-13T01:13:51;101444.28;;;16.07;75.30
71716;BME280;59568;52.128;5.434;2023-07-13T01:16:27;101446.44;;;16.05;75.43
71716;BME280;59568;52.128;5.434;2023-07-13T01:18:57;101453.41;;;16.01;75.43
71716;BME280;59568;52.128;5.434;2023-07-13T01:21:29;101454.47;;;16.00;75.72
71716;BME280;59568;52.128;5.434;2023-07-13T01:23:57;101464.41;;;15.94;75.85
71716;BME280;59568;52.128;5.434;2023-07-13T01:26:24;101460.50;;;15.91;76.07
71716;BME280;59568;52.128;5.434;2023-07-13T01:28:51;101458.50;;;15.88;76.19
71716;BME280;59568;52.128;5.434;2023-07-13T01:31:18;101450.41;;;15.85;76.41
71716;BME280;59568;52.128;5.434;2023-07-13T01:33:45;101460.03;;;15.81;76.67
71716;BME280;59568;52.128;5.434;2023-07-13T01:36:12;101460.66;;;15.77;76.37
71716;BME280;59568;52.128;5.434;2023-07-13T01:38:40;101461.25;;;15.74;76.49
71716;BME280;59568;52.128;5.434;2023-07-13T01:41:10;101460.25;;;15.70;76.96
71716;BME280;59568;52.128;5.434;2023-07-13T01:43:37;101456.69;;;15.66;77.55
71716;BME280;59568;52.128;5.434;2023-07-13T01:46:04;101463.16;;;15.60;77.17
71716;BME280;59568;52.128;5.434;2023-07-13T01:48:48;101458.19;;;15.58;77.04
71716;BME280;59568;52.128;5.434;2023-07-13T01:51:17;101463.75;;;15.57;76.92
71716;BME280;59568;52.128;5.434;2023-07-13T01:53:44;101462.53;;;15.54;77.29
71716;BME280;59568;52.128;5.434;2023-07-13T01:56:11;101467.31;;;15.52;77.31
71716;BME280;59568;52.128;5.434;2023-07-13T01:58:39;101463.13;;;15.51;77.19
71716;BME280;59568;52.128;5.434;2023-07-13T02:01:06;101468.41;;;15.51;77.39
71716;BME280;59568;52.128;5.434;2023-07-13T02:03:33;101458.16;;;15.50;77.15
71716;BME280;59568;52.128;5.434;2023-07-13T02:06:00;101462.16;;;15.47;77.35
71716;BME280;59568;52.128;5.434;2023-07-13T02:08:27;101462.16;;;15.47;77.23
71716;BME280;59568;52.128;5.434;2023-07-13T02:10:54;101460.63;;;15.46;76.94
71716;BME280;59568;52.128;5.434;2023-07-13T02:13:21;101472.56;;;15.44;77.16
71716;BME280;59568;52.128;5.434;2023-07-13T02:15:50;101471.28;;;15.41;77.73
71716;BME280;59568;52.128;5.434;2023-07-13T02:18:18;101479.31;;;15.36;77.74
71716;BME280;59568;52.128;5.434;2023-07-13T02:20:45;101472.81;;;15.33;77.52
71716;BME280;59568;52.128;5.434;2023-07-13T02:23:12;101472.34;;;15.31;77.57
71716;BME280;59568;52.128;5.434;2023-07-13T02:25:39;101470.75;;;15.30;77.78
71716;BME280;59568;52.128;5.434;2023-07-13T02:28:06;101470.28;;;15.28;78.08
71716;BME280;59568;52.128;5.434;2023-07-13T02:30:34;101470.59;;;15.27;78.07
71716;BME280;59568;52.128;5.434;2023-07-13T02:33:01;101471.19;;;15.24;78.23
71716;BME280;59568;52.128;5.434;2023-07-13T02:35:29;101475.50;;;15.20;78.22
71716;BME280;59568;52.128;5.434;2023-07-13T02:37:56;101469.28;;;15.15;78.65
71716;BME280;59568;52.128;5.434;2023-07-13T02:40:23;101473.00;;;15.14;78.44
71716;BME280;59568;52.128;5.434;2023-07-13T02:42:50;101483.53;;;15.14;78.96
71716;BME280;59568;52.128;5.434;2023-07-13T02:45:17;101485.19;;;15.10;78.50
71716;BME280;59568;52.128;5.434;2023-07-13T02:47:44;101482.56;;;15.10;78.68
71716;BME280;59568;52.128;5.434;2023-07-13T02:50:11;101476.53;;;15.10;78.64
71716;BME280;59568;52.128;5.434;2023-07-13T02:52:38;101474.47;;;15.07;79.33
71716;BME280;59568;52.128;5.434;2023-07-13T02:55:06;101471.69;;;15.03;79.68
71716;BME280;59568;52.128;5.434;2023-07-13T02:57:33;101476.47;;;15.01;79.62
71716;BME280;59568;52.128;5.434;2023-07-13T03:00:02;101474.63;;;15.02;79.19
71716;BME280;59568;52.128;5.434;2023-07-13T03:02:32;101474.63;;;15.02;79.42
71716;BME280;59568;52.128;5.434;2023-07-13T03:05:00;101482.81;;;15.00;79.27
71716;BME280;59568;52.128;5.434;2023-07-13T03:07:27;101481.28;;;14.99;79.79
71716;BME280;59568;52.128;5.434;2023-07-13T03:09:58;101485.72;;;14.98;79.77
71716;BME280;59568;52.128;5.434;2023-07-13T03:12:25;101489.47;;;14.97;79.75
71716;BME280;59568;52.128;5.434;2023-07-13T03:14:52;101483.72;;;14.95;79.66
71716;BME280;59568;52.128;5.434;2023-07-13T03:17:19;101491.41;;;14.92;79.97
71716;BME280;59568;52.128;5.434;2023-07-13T03:19:47;101484.59;;;14.91;79.99
71716;BME280;59568;52.128;5.434;2023-07-13T03:22:17;101489.38;;;14.89;80.27
71716;BME280;59568;52.128;5.434;2023-07-13T03:24:45;101481.47;;;14.89;80.30
71716;BME280;59568;52.128;5.434;2023-07-13T03:27:12;101490.47;;;14.88;80.86
71716;BME280;59568;52.128;5.434;2023-07-13T03:29:39;101491.03;;;14.85;81.09
71716;BME280;59568;52.128;5.434;2023-07-13T03:32:07;101499.25;;;14.83;80.93
71716;BME280;59568;52.128;5.434;2023-07-13T03:34:34;101498.47;;;14.83;80.70
71716;BME280;59568;52.128;5.434;2023-07-13T03:37:01;101501.88;;;14.83;81.33
71716;BME280;59568;52.128;5.434;2023-07-13T03:39:28;101507.44;;;14.82;81.20
71716;BME280;59568;52.128;5.434;2023-07-13T03:41:55;101503.72;;;14.83;80.93
71716;BME280;59568;52.128;5.434;2023-07-13T03:44:22;101511.31;;;14.84;81.33
71716;BME280;59568;52.128;5.434;2023-07-13T03:46:49;101515.81;;;14.84;81.93
71716;BME280;59568;52.128;5.434;2023-07-13T03:49:17;101519.50;;;14.83;81.51
71716;BME280;59568;52.128;5.434;2023-07-13T03:51:44;101515.81;;;14.84;81.62
71716;BME280;59568;52.128;5.434;2023-07-13T03:54:11;101512.56;;;14.87;80.82
71716;BME280;59568;52.128;5.434;2023-07-13T03:56:38;101518.03;;;14.90;81.30
71716;BME280;59568;52.128;5.434;2023-07-13T03:59:05;101518.50;;;14.92;80.96
71716;BME280;59568;52.128;5.434;2023-07-13T04:01:32;101528.44;;;14.95;81.57
71716;BME280;59568;52.128;5.434;2023-07-13T04:03:59;101527.06;;;14.98;80.94
71716;BME280;59568;52.128;5.434;2023-07-13T04:06:30;101528.94;;;14.97;81.48
71716;BME280;59568;52.128;5.434;2023-07-13T04:08:59;101532.34;;;14.98;82.12
71716;BME280;59568;52.128;5.434;2023-07-13T04:11:29;101538.38;;;14.98;81.18
71716;BME280;59568;52.128;5.434;2023-07-13T04:13:56;101527.25;;;15.02;82.12
71716;BME280;59568;52.128;5.434;2023-07-13T04:16:23;101539.50;;;15.06;81.69
71716;BME280;59568;52.128;5.434;2023-07-13T04:18:51;101530.56;;;15.07;80.86
71716;BME280;59568;52.128;5.434;2023-07-13T04:21:21;101535.50;;;15.09;81.35
71716;BME280;59568;52.128;5.434;2023-07-13T04:23:48;101538.94;;;15.09;80.72
71716;BME280;59568;52.128;5.434;2023-07-13T04:26:16;101539.91;;;15.13;80.61
71716;BME280;59568;52.128;5.434;2023-07-13T04:28:43;101536.16;;;15.14;80.37
71716;BME280;59568;52.128;5.434;2023-07-13T04:31:10;101544.53;;;15.16;81.20
71716;BME280;59568;52.128;5.434;2023-07-13T04:33:37;101548.44;;;15.19;81.86
71716;BME280;59568;52.128;5.434;2023-07-13T04:36:05;101556.69;;;15.26;81.83
71716;BME280;59568;52.128;5.434;2023-07-13T04:38:32;101549.28;;;15.28;81.49
71716;BME280;59568;52.128;5.434;2023-07-13T04:41:02;101546.84;;;15.32;81.21
71716;BME280;59568;52.128;5.434;2023-07-13T04:43:30;101546.78;;;15.46;81.90
71716;BME280;59568;52.128;5.434;2023-07-13T04:45:57;101551.97;;;15.60;81.34
71716;BME280;59568;52.128;5.434;2023-07-13T04:48:29;101543.22;;;15.73;81.55
71716;BME280;59568;52.128;5.434;2023-07-13T04:50:57;101549.25;;;15.73;81.19
71716;BME280;59568;52.128;5.434;2023-07-13T04:53:25;101549.56;;;15.72;80.74
71716;BME280;59568;52.128;5.434;2023-07-13T04:55:53;101551.59;;;15.75;80.43
71716;BME280;59568;52.128;5.434;2023-07-13T04:58:21;101547.28;;;15.79;81.04
71716;BME280;59568;52.128;5.434;2023-07-13T05:00:49;101545.00;;;15.86;80.68
71716;BME280;59568;52.128;5.434;2023-07-13T05:03:16;101544.38;;;15.89;81.26
71716;BME280;59568;52.128;5.434;2023-07-13T05:05:56;101546.88;;;15.94;83.33
71716;BME280;59568;52.128;5.434;2023-07-13T05:08:24;101548.19;;;16.06;83.09
71716;BME280;59568;52.128;5.434;2023-07-13T05:10:51;101556.59;;;16.25;82.89
71716;BME280;59568;52.128;5.434;2023-07-13T05:13:19;101557.13;;;16.45;82.56
71716;BME280;59568;52.128;5.434;2023-07-13T05:15:55;101556.03;;;16.46;81.93
71716;BME280;59568;52.128;5.434;2023-07-13T05:18:22;101560.81;;;16.35;81.30
71716;BME280;59568;52.128;5.434;2023-07-13T05:21:10;101566.88;;;16.35;82.03
71716;BME280;59568;52.128;5.434;2023-07-13T05:23:39;101569.84;;;16.34;81.80
71716;BME280;59568;52.128;5.434;2023-07-13T05:26:07;101569.97;;;16.37;81.52
71716;BME280;59568;52.128;5.434;2023-07-13T05:28:36;101577.28;;;16.41;81.58
71716;BME280;59568;52.128;5.434;2023-07-13T05:31:04;101570.91;;;16.42;81.78
71716;BME280;59568;52.128;5.434;2023-07-13T05:33:33;101577.94;;;16.46;82.97
71716;BME280;59568;52.128;5.434;2023-07-13T05:36:00;101576.53;;;16.49;82.92
71716;BME280;59568;52.128;5.434;2023-07-13T05:38:28;101585.84;;;16.55;82.08
71716;BME280;59568;52.128;5.434;2023-07-13T05:40:56;101583.09;;;16.60;82.57
71716;BME280;59568;52.128;5.434;2023-07-13T05:43:23;101590.69;;;16.62;82.87
71716;BME280;59568;52.128;5.434;2023-07-13T05:45:56;101587.72;;;16.63;83.73
71716;BME280;59568;52.128;5.434;2023-07-13T05:48:23;101596.41;;;16.64;84.03
71716;BME280;59568;52.128;5.434;2023-07-13T05:50:50;101591.31;;;16.67;83.86
71716;BME280;59568;52.128;5.434;2023-07-13T05:53:17;101582.16;;;16.73;83.14
71716;BME280;59568;52.128;5.434;2023-07-13T05:55:46;101599.41;;;16.80;83.90
71716;BME280;59568;52.128;5.434;2023-07-13T05:58:17;101588.09;;;16.88;83.00
71716;BME280;59568;52.128;5.434;2023-07-13T06:00:45;101594.66;;;16.90;83.22
71716;BME280;59568;52.128;5.434;2023-07-13T06:03:12;101598.06;;;16.91;83.52
71716;BME280;59568;52.128;5.434;2023-07-13T06:05:39;101607.84;;;16.90;83.62
71716;BME280;59568;52.128;5.434;2023-07-13T06:08:07;101594.31;;;16.92;83.51
71716;BME280;59568;52.128;5.434;2023-07-13T06:10:35;101606.91;;;17.04;82.80
71716;BME280;59568;52.128;5.434;2023-07-13T06:13:03;101614.69;;;17.17;83.20
71716;BME280;59568;52.128;5.434;2023-07-13T06:15:30;101613.28;;;17.29;83.34
71716;BME280;59568;52.128;5.434;2023-07-13T06:17:57;101617.31;;;17.26;82.66
71716;BME280;59568;52.128;5.434;2023-07-13T06:20:24;101613.59;;;17.36;83.60
71716;BME280;59568;52.128;5.434;2023-07-13T06:22:51;101617.47;;;17.47;82.31
71716;BME280;59568;52.128;5.434;2023-07-13T06:25:18;101624.59;;;17.64;82.04
71716;BME280;59568;52.128;5.434;2023-07-13T06:27:45;101625.06;;;17.75;81.05
71716;BME280;59568;52.128;5.434;2023-07-13T06:30:13;101631.88;;;17.76;81.14
71716;BME280;59568;52.128;5.434;2023-07-13T06:32:40;101631.25;;;17.79;82.91
71716;BME280;59568;52.128;5.434;2023-07-13T06:35:07;101637.31;;;17.97;83.56
71716;BME280;59568;52.128;5.434;2023-07-13T06:37:35;101634.28;;;18.16;82.21
71716;BME280;59568;52.128;5.434;2023-07-13T06:40:02;101627.56;;;18.27;82.21
71716;BME280;59568;52.128;5.434;2023-07-13T06:42:30;101630.56;;;18.17;81.04
71716;BME280;59568;52.128;5.434;2023-07-13T06:44:56;101634.94;;;18.13;82.63
71716;BME280;59568;52.128;5.434;2023-07-13T06:47:23;101632.59;;;18.11;81.76
71716;BME280;59568;52.128;5.434;2023-07-13T06:49:51;101634.94;;;18.13;82.43
71716;BME280;59568;52.128;5.434;2023-07-13T06:52:18;101640.69;;;18.15;81.10
71716;BME280;59568;52.128;5.434;2023-07-13T06:54:45;101638.34;;;18.13;81.72
71716;BME280;59568;52.128;5.434;2023-07-13T06:57:12;101634.44;;;18.20;81.07
71716;BME280;59568;52.128;5.434;2023-07-13T06:59:39;101639.22;;;18.26;81.22
71716;BME280;59568;52.128;5.434;2023-07-13T07:02:07;101639.28;;;18.47;81.49
71716;BME280;59568;52.128;5.434;2023-07-13T07:04:35;101640.66;;;18.83;81.87
71716;BME280;59568;52.128;5.434;2023-07-13T07:07:02;101650.16;;;19.05;79.73
71716;BME280;59568;52.128;5.434;2023-07-13T07:09:29;101657.34;;;19.05;78.26
71716;BME280;59568;52.128;5.434;2023-07-13T07:11:58;101652.28;;;18.91;78.52
71716;BME280;59568;52.128;5.434;2023-07-13T07:14:31;101672.41;;;18.92;79.16
71716;BME280;59568;52.128;5.434;2023-07-13T07:16:58;101665.59;;;19.03;79.28
71716;BME280;59568;52.128;5.434;2023-07-13T07:19:27;101653.34;;;19.20;79.12
71716;BME280;59568;52.128;5.434;2023-07-13T07:21:54;101661.00;;;19.33;77.92
71716;BME280;59568;52.128;5.434;2023-07-13T07:24:21;101672.84;;;19.36;77.75
71716;BME280;59568;52.128;5.434;2023-07-13T07:26:48;101668.84;;;19.30;77.68
71716;BME280;59568;52.128;5.434;2023-07-13T07:29:18;101670.16;;;19.24;77.33
71716;BME280;59568;52.128;5.434;2023-07-13T07:31:48;101671.09;;;19.19;78.81
71716;BME280;59568;52.128;5.434;2023-07-13T07:34:31;101674.28;;;19.12;79.39
71716;BME280;59568;52.128;5.434;2023-07-13T07:37:01;101676.34;;;19.07;79.54
71716;BME280;59568;52.128;5.434;2023-07-13T07:39:31;101672.47;;;19.04;79.54
71716;BME280;59568;52.128;5.434;2023-07-13T07:41:59;101676.84;;;19.00;80.04
71716;BME280;59568;52.128;5.434;2023-07-13T07:44:26;101674.38;;;18.95;80.66
71716;BME280;59568;52.128;5.434;2023-07-13T07:46:54;101662.56;;;18.92;81.58
71716;BME280;59568;52.128;5.434;2023-07-13T07:49:21;101663.34;;;18.93;81.10
71716;BME280;59568;52.128;5.434;2023-07-13T07:51:49;101659.09;;;19.01;80.79
71716;BME280;59568;52.128;5.434;2023-07-13T07:54:16;101659.53;;;19.03;81.43
71716;BME280;59568;52.128;5.434;2023-07-13T07:56:55;101659.69;;;19.06;80.56
71716;BME280;59568;52.128;5.434;2023-07-13T07:59:25;101653.94;;;19.04;81.10
71716;BME280;59568;52.128;5.434;2023-07-13T08:01:55;101656.56;;;19.04;81.14
71716;BME280;59568;52.128;5.434;2023-07-13T08:04:25;101645.44;;;19.11;81.04
71716;BME280;59568;52.128;5.434;2023-07-13T08:06:55;101654.63;;;19.34;81.46
71716;BME280;59568;52.128;5.434;2023-07-13T08:09:24;101651.41;;;19.62;81.15
71716;BME280;59568;52.128;5.434;2023-07-13T08:11:51;101657.97;;;20.10;81.28
71716;BME280;59568;52.128;5.434;2023-07-13T08:14:22;101664.16;;;20.39;79.10
71716;BME280;59568;52.128;5.434;2023-07-13T08:16:49;101666.94;;;20.55;79.09
71716;BME280;59568;52.128;5.434;2023-07-13T08:19:16;101671.81;;;20.65;77.99
71716;BME280;59568;52.128;5.434;2023-07-13T08:21:43;101659.19;;;20.50;78.16
71716;BME280;59568;52.128;5.434;2023-07-13T08:24:10;101653.00;;;20.21;77.69
71716;BME280;59568;52.128;5.434;2023-07-13T08:26:38;101657.41;;;20.05;77.42
71716;BME280;59568;52.128;5.434;2023-07-13T08:29:05;101660.22;;;19.87;77.55
71716;BME280;59568;52.128;5.434;2023-07-13T08:31:32;101668.28;;;19.79;79.01
71716;BME280;59568;52.128;5.434;2023-07-13T08:33:59;101667.56;;;20.03;78.59
71716;BME280;59568;52.128;5.434;2023-07-13T08:36:26;101661.25;;;20.07;78.01
71716;BME280;59568;52.128;5.434;2023-07-13T08:38:54;101656.09;;;20.23;77.66
71716;BME280;59568;52.128;5.434;2023-07-13T08:41:22;101659.28;;;20.53;76.71
71716;BME280;59568;52.128;5.434;2023-07-13T08:43:54;101659.41;;;20.57;76.09
71716;BME280;59568;52.128;5.434;2023-07-13T08:46:34;101656.75;;;20.57;75.31
71716;BME280;59568;52.128;5.434;2023-07-13T08:49:05;101664.28;;;20.67;75.81
71716;BME280;59568;52.128;5.434;2023-07-13T08:54:27;101678.19;;;21.01;73.67
71716;BME280;59568;52.128;5.434;2023-07-13T08:56:55;101686.81;;;20.98;72.94
71716;BME280;59568;52.128;5.434;2023-07-13T08:59:26;101684.41;;;20.93;71.79
71716;BME280;59568;52.128;5.434;2023-07-13T09:02:25;101687.50;;;20.70;72.25
71716;BME280;59568;52.128;5.434;2023-07-13T09:04:58;101688.38;;;20.50;73.04
71716;BME280;59568;52.128;5.434;2023-07-13T09:10:20;101698.09;;;20.21;73.28
71716;BME280;59568;52.128;5.434;2023-07-13T09:15:40;101689.38;;;20.21;74.29
71716;BME280;59568;52.128;5.434;2023-07-13T09:21:00;101693.81;;;20.41;74.91
71716;BME280;59568;52.128;5.434;2023-07-13T09:23:30;101684.41;;;20.44;74.92
71716;BME280;59568;52.128;5.434;2023-07-13T09:26:21;101681.53;;;20.49;75.40
71716;BME280;59568;52.128;5.434;2023-07-13T09:28:52;101680.41;;;20.50;75.07
71716;BME280;59568;52.128;5.434;2023-07-13T09:31:23;101685.06;;;20.53;75.67
71716;BME280;59568;52.128;5.434;2023-07-13T09:33:53;101692.81;;;20.46;74.35
71716;BME280;59568;52.128;5.434;2023-07-13T09:36:23;101689.25;;;20.54;74.34
71716;BME280;59568;52.128;5.434;2023-07-13T09:39:12;101686.72;;;20.82;75.17
71716;BME280;59568;52.128;5.434;2023-07-13T09:44:12;101676.72;;;21.04;73.13
71716;BME280;59568;52.128;5.434;2023-07-13T09:46:45;101685.84;;;21.03;72.56
71716;BME280;59568;52.128;5.434;2023-07-13T09:49:13;101701.47;;;20.80;72.37
71716;BME280;59568;52.128;5.434;2023-07-13T09:51:41;101701.53;;;20.46;71.87
71716;BME280;59568;52.128;5.434;2023-07-13T09:54:24;101698.22;;;20.25;73.62
71716;BME280;59568;52.128;5.434;2023-07-13T09:56:55;101734.09;;;19.98;74.60
71716;BME280;59568;52.128;5.434;2023-07-13T09:59:28;101737.78;;;19.72;76.55
71716;BME280;59568;52.128;5.434;2023-07-13T10:01:56;101739.66;;;19.42;96.64
71716;BME280;59568;52.128;5.434;2023-07-13T10:04:30;101728.16;;;19.16;100.00
71716;BME280;59568;52.128;5.434;2023-07-13T10:07:08;101732.66;;;18.95;100.00
71716;BME280;59568;52.128;5.434;2023-07-13T10:09:55;101736.88;;;18.96;100.00
71716;BME280;59568;52.128;5.434;2023-07-13T10:12:23;101727.41;;;19.37;100.00
71716;BME280;59568;52.128;5.434;2023-07-13T10:14:54;101727.31;;;19.88;100.00
71716;BME280;59568;52.128;5.434;2023-07-13T10:17:43;101724.75;;;20.12;100.00
71716;BME280;59568;52.128;5.434;2023-07-13T10:20:11;101730.16;;;20.16;100.00
71716;BME280;59568;52.128;5.434;2023-07-13T10:22:49;101737.47;;;20.31;100.00
71716;BME280;59568;52.128;5.434;2023-07-13T10:25:24;101740.25;;;20.23;100.00
71716;BME280;59568;52.128;5.434;2023-07-13T10:27:53;101724.63;;;20.09;100.00
71716;BME280;59568;52.128;5.434;2023-07-13T10:30:26;101728.78;;;19.98;100.00
71716;BME280;59568;52.128;5.434;2023-07-13T10:32:58;101727.00;;;20.35;100.00
71716;BME280;59568;52.128;5.434;2023-07-13T10:35:29;101723.03;;;20.78;100.00
71716;BME280;59568;52.128;5.434;2023-07-13T10:40:33;101732.44;;;20.88;100.00
71716;BME280;59568;52.128;5.434;2023-07-13T10:43:06;101735.56;;;20.65;100.00
71716;BME280;59568;52.128;5.434;2023-07-13T10:45:42;101735.53;;;20.53;100.00
71716;BME280;59568;52.128;5.434;2023-07-13T10:48:13;101750.56;;;20.37;100.00
71716;BME280;59568;52.128;5.434;2023-07-13T10:50:45;101739.81;;;20.33;100.00
71716;BME280;59568;52.128;5.434;2023-07-13T10:53:29;101742.59;;;20.37;100.00
71716;BME280;59568;52.128;5.434;2023-07-13T10:56:04;101742.44;;;20.79;100.00
71716;BME280;59568;52.128;5.434;2023-07-13T10:58:39;101745.88;;;21.32;100.00
71716;BME280;59568;52.128;5.434;2023-07-13T11:01:13;101753.31;;;21.67;100.00
71716;BME280;59568;52.128;5.434;2023-07-13T11:03:49;101752.53;;;21.94;100.00
71716;BME280;59568;52.128;5.434;2023-07-13T11:06:39;101745.59;;;22.34;100.00
71716;BME280;59568;52.128;5.434;2023-07-13T11:09:35;101755.63;;;22.57;100.00
71716;BME280;59568;52.128;5.434;2023-07-13T11:12:09;101766.69;;;22.59;100.00
71716;BME280;59568;52.128;5.434;2023-07-13T11:15:06;101763.78;;;22.64;100.00
71716;BME280;59568;52.128;5.434;2023-07-13T11:17:47;101758.81;;;23.13;100.00
71716;BME280;59568;52.128;5.434;2023-07-13T11:22:49;101757.97;;;22.93;100.00
71716;BME280;59568;52.128;5.434;2023-07-13T11:27:51;101763.09;;;22.35;100.00
71716;BME280;59568;52.128;5.434;2023-07-13T11:36:03;101755.75;;;22.16;100.00
71716;BME280;59568;52.128;5.434;2023-07-13T11:38:38;101751.81;;;22.10;100.00
71716;BME280;59568;52.128;5.434;2023-07-13T11:43:55;101765.13;;;21.53;100.00
71716;BME280;59568;52.128;5.434;2023-07-13T11:46:27;101775.78;;;21.41;100.00
71716;BME280;59568;52.128;5.434;2023-07-13T11:48:55;101786.97;;;21.34;100.00
71716;BME280;59568;52.128;5.434;2023-07-13T11:51:42;101788.41;;;21.32;100.00
71716;BME280;59568;52.128;5.434;2023-07-13T11:54:31;101776.59;;;21.17;100.00
71716;BME280;59568;52.128;5.434;2023-07-13T11:57:12;101781.03;;;21.13;100.00
71716;BME280;59568;52.128;5.434;2023-07-13T11:59:45;101785.22;;;21.14;100.00
71716;BME280;59568;52.128;5.434;2023-07-13T12:02:20;101786.81;;;21.03;100.00
71716;BME280;59568;52.128;5.434;2023-07-13T12:04:50;101783.78;;;21.04;100.00
71716;BME280;59568;52.128;5.434;2023-07-13T12:07:19;101796.75;;;21.06;100.00
71716;BME280;59568;52.128;5.434;2023-07-13T12:09:46;101781.13;;;21.04;100.00
71716;BME280;59568;52.128;5.434;2023-07-13T12:12:17;101781.19;;;21.32;100.00
71716;BME280;59568;52.128;5.434;2023-07-13T12:14:45;101787.72;;;21.88;100.00
71716;BME280;59568;52.128;5.434;2023-07-13T12:17:20;101787.94;;;22.11;97.12
71716;BME280;59568;52.128;5.434;2023-07-13T12:19:49;101781.66;;;21.75;95.58
71716;BME280;59568;52.128;5.434;2023-07-13T12:22:18;101782.16;;;21.65;96.69
71716;BME280;59568;52.128;5.434;2023-07-13T12:24:47;101790.59;;;21.54;95.47
71716;BME280;59568;52.128;5.434;2023-07-13T12:27:27;101787.50;;;21.52;95.25
71716;BME280;59568;52.128;5.434;2023-07-13T12:30:03;101789.72;;;21.50;93.74
71716;BME280;59568;52.128;5.434;2023-07-13T12:32:32;101785.53;;;21.49;91.91
71716;BME280;59568;52.128;5.434;2023-07-13T12:35:17;101779.69;;;21.72;90.62
71716;BME280;59568;52.128;5.434;2023-07-13T12:37:48;101783.75;;;21.82;86.13
71716;BME280;59568;52.128;5.434;2023-07-13T12:40:20;101783.81;;;22.42;85.51
71716;BME280;59568;52.128;5.434;2023-07-13T12:42:51;101782.03;;;23.13;82.26
71716;BME280;59568;52.128;5.434;2023-07-13T12:45:24;101780.19;;;23.52;79.84
71716;BME280;59568;52.128;5.434;2023-07-13T12:47:57;101775.81;;;23.64;78.15
71716;BME280;59568;52.128;5.434;2023-07-13T12:50:40;101775.69;;;23.96;75.91
71716;BME280;59568;52.128;5.434;2023-07-13T12:53:16;101773.84;;;23.41;73.11
71716;BME280;59568;52.128;5.434;2023-07-13T12:58:26;101779.72;;;22.96;74.20
71716;BME280;59568;52.128;5.434;2023-07-13T13:00:57;101787.81;;;23.35;70.48
71716;BME280;59568;52.128;5.434;2023-07-13T13:04:08;101774.47;;;23.73;72.19
71716;BME280;59568;52.128;5.434;2023-07-13T13:06:28;101780.03;;;23.84;69.68
71716;BME280;59568;52.128;5.434;2023-07-13T13:08:57;101775.69;;;23.37;68.99
71716;BME280;59568;52.128;5.434;2023-07-13T13:11:26;101791.22;;;23.00;70.67
71716;BME280;59568;52.128;5.434;2023-07-13T13:13:54;101780.16;;;22.82;72.11
71716;BME280;59568;52.128;5.434;2023-07-13T13:16:32;101778.88;;;22.76;72.66
71716;BME280;59568;52.128;5.434;2023-07-13T13:19:28;101780.16;;;23.33;70.13
71716;BME280;59568;52.128;5.434;2023-07-13T13:21:56;101782.00;;;23.48;70.34
71716;BME280;59568;52.128;5.434;2023-07-13T13:24:26;101787.91;;;23.38;68.80
71716;BME280;59568;52.128;5.434;2023-07-13T13:26:54;101780.16;;;23.33;68.90
71716;BME280;59568;52.128;5.434;2023-07-13T13:29:25;101785.53;;;23.17;67.27
71716;BME280;59568;52.128;5.434;2023-07-13T13:31:55;101784.91;;;23.04;69.49
71716;BME280;59568;52.128;5.434;2023-07-13T13:34:24;101786.00;;;22.71;66.72
71716;BME280;59568;52.128;5.434;2023-07-13T13:36:53;101790.91;;;22.53;67.97
71716;BME280;59568;52.128;5.434;2023-07-13T13:39:30;101794.53;;;22.45;69.23